sensor_id;sensor_type;location;lat;lon;timestamp;P1;P2;P0
56360;PMS7003;42611;51.132;13.588;2024-03-08T00:00:02;57.0;46.3;
56360;PMS7003;42611;51.132;13.588;2024-03-08T00:05:01;56.6;46.6;
56360;PMS7003;42611;51.132;13.588;2024-03-08T00:10:03;58.3;47.5;
56360;PMS7003;42611;51.132;13.588;2024-03-08T00:16:02;58.5;47.2;
56360;PMS7003;42611;51.132;13.588;2024-03-08T00:21:03;59.6;47.5;
56360;PMS7003;42611;51.132;13.588;2024-03-08T00:26:02;60.0;47.7;
56360;PMS7003;42611;51.132;13.588;2024-03-08T00:31:02;60.1;47.6;
56360;PMS7003;42611;51.132;13.588;2024-03-08T00:36:01;58.5;46.4;
56360;PMS7003;42611;51.132;13.588;2024-03-08T00:41:01;59.0;46.8;
56360;PMS7003;42611;51.132;13.588;2024-03-08T00:46:01;58.4;46.1;
56360;PMS7003;42611;51.132;13.588;2024-03-08T00:51:01;58.2;46.1;
56360;PMS7003;42611;51.132;13.588;2024-03-08T00:56:01;58.3;45.8;
56360;PMS7003;42611;51.132;13.588;2024-03-08T01:01:02;59.5;46.9;
56360;PMS7003;42611;51.132;13.588;2024-03-08T01:06:01;60.0;46.8;
56360;PMS7003;42611;51.132;13.588;2024-03-08T01:11:07;61.9;48.2;
56360;PMS7003;42611;51.132;13.588;2024-03-08T01:16:02;62.0;48.0;
56360;PMS7003;42611;51.132;13.588;2024-03-08T01:21:01;61.9;48.1;
56360;PMS7003;42611;51.132;13.588;2024-03-08T01:26:01;61.8;47.8;
56360;PMS7003;42611;51.132;13.588;2024-03-08T01:31:01;61.1;48.1;
56360;PMS7003;42611;51.132;13.588;2024-03-08T01:36:01;60.6;47.5;
56360;PMS7003;42611;51.132;13.588;2024-03-08T01:46:02;61.0;48.2;
56360;PMS7003;42611;51.132;13.588;2024-03-08T01:56:01;61.2;48.4;
56360;PMS7003;42611;51.132;13.588;2024-03-08T02:01:01;61.0;48.2;
56360;PMS7003;42611;51.132;13.588;2024-03-08T02:06:02;61.3;48.0;
56360;PMS7003;42611;51.132;13.588;2024-03-08T02:11:01;60.1;46.9;
56360;PMS7003;42611;51.132;13.588;2024-03-08T02:16:01;59.2;46.3;
56360;PMS7003;42611;51.132;13.588;2024-03-08T02:21:02;60.0;46.7;
56360;PMS7003;42611;51.132;13.588;2024-03-08T02:26:01;58.5;46.4;
56360;PMS7003;42611;51.132;13.588;2024-03-08T02:31:01;59.1;47.0;
56360;PMS7003;42611;51.132;13.588;2024-03-08T02:36:02;61.5;48.9;
56360;PMS7003;42611;51.132;13.588;2024-03-08T02:41:01;59.4;47.2;
56360;PMS7003;42611;51.132;13.588;2024-03-08T02:46:01;58.8;47.3;
56360;PMS7003;42611;51.132;13.588;2024-03-08T02:51:02;59.6;48.0;
56360;PMS7003;42611;51.132;13.588;2024-03-08T02:56:02;59.1;47.8;
56360;PMS7003;42611;51.132;13.588;2024-03-08T03:01:01;58.2;46.5;
56360;PMS7003;42611;51.132;13.588;2024-03-08T03:06:02;61.0;48.4;
56360;PMS7003;42611;51.132;13.588;2024-03-08T03:11:01;61.9;49.1;
56360;PMS7003;42611;51.132;13.588;2024-03-08T03:16:01;62.2;48.9;
56360;PMS7003;42611;51.132;13.588;2024-03-08T03:21:01;60.4;47.9;
56360;PMS7003;42611;51.132;13.588;2024-03-08T03:26:02;59.3;48.2;
56360;PMS7003;42611;51.132;13.588;2024-03-08T03:31:02;60.0;48.9;
56360;PMS7003;42611;51.132;13.588;2024-03-08T03:36:01;61.2;49.2;
56360;PMS7003;42611;51.132;13.588;2024-03-08T03:41:01;61.1;49.1;
56360;PMS7003;42611;51.132;13.588;2024-03-08T03:46:01;63.4;50.2;
56360;PMS7003;42611;51.132;13.588;2024-03-08T03:51:01;61.8;48.6;
56360;PMS7003;42611;51.132;13.588;2024-03-08T03:56:01;62.6;49.1;
56360;PMS7003;42611;51.132;13.588;2024-03-08T04:01:06;61.4;48.2;
56360;PMS7003;42611;51.132;13.588;2024-03-08T04:06:02;62.8;48.8;
56360;PMS7003;42611;51.132;13.588;2024-03-08T04:11:01;62.7;49.2;
56360;PMS7003;42611;51.132;13.588;2024-03-08T04:16:02;65.8;51.3;
56360;PMS7003;42611;51.132;13.588;2024-03-08T04:21:02;66.2;50.9;
56360;PMS7003;42611;51.132;13.588;2024-03-08T04:26:02;67.1;51.5;
56360;PMS7003;42611;51.132;13.588;2024-03-08T04:31:01;66.1;51.2;
56360;PMS7003;42611;51.132;13.588;2024-03-08T04:36:01;60.4;47.3;
56360;PMS7003;42611;51.132;13.588;2024-03-08T04:41:01;61.2;48.1;
56360;PMS7003;42611;51.132;13.588;2024-03-08T04:46:01;59.3;47.7;
56360;PMS7003;42611;51.132;13.588;2024-03-08T04:51:02;60.9;47.9;
56360;PMS7003;42611;51.132;13.588;2024-03-08T04:56:01;61.9;48.4;
56360;PMS7003;42611;51.132;13.588;2024-03-08T05:01:02;67.9;52.0;
56360;PMS7003;42611;51.132;13.588;2024-03-08T05:06:01;68.7;52.5;
56360;PMS7003;42611;51.132;13.588;2024-03-08T05:12:01;71.2;53.8;
56360;PMS7003;42611;51.132;13.588;2024-03-08T05:17:01;64.5;50.0;
56360;PMS7003;42611;51.132;13.588;2024-03-08T05:22:11;65.5;50.8;
56360;PMS7003;42611;51.132;13.588;2024-03-08T05:27:03;65.6;51.8;
56360;PMS7003;42611;51.132;13.588;2024-03-08T05:32:01;63.6;49.7;
56360;PMS7003;42611;51.132;13.588;2024-03-08T05:37:01;62.2;48.9;
56360;PMS7003;42611;51.132;13.588;2024-03-08T05:42:01;67.8;52.9;
56360;PMS7003;42611;51.132;13.588;2024-03-08T05:47:01;66.1;51.6;
56360;PMS7003;42611;51.132;13.588;2024-03-08T05:52:01;65.9;51.3;
56360;PMS7003;42611;51.132;13.588;2024-03-08T05:57:02;67.8;52.9;
56360;PMS7003;42611;51.132;13.588;2024-03-08T06:02:01;62.5;49.0;
56360;PMS7003;42611;51.132;13.588;2024-03-08T06:07:01;62.9;49.7;
56360;PMS7003;42611;51.132;13.588;2024-03-08T06:12:01;62.8;50.2;
56360;PMS7003;42611;51.132;13.588;2024-03-08T06:22:01;62.1;49.6;
56360;PMS7003;42611;51.132;13.588;2024-03-08T06:27:01;68.6;54.3;
56360;PMS7003;42611;51.132;13.588;2024-03-08T06:32:01;69.2;54.3;
56360;PMS7003;42611;51.132;13.588;2024-03-08T06:37:02;70.6;55.0;
56360;PMS7003;42611;51.132;13.588;2024-03-08T06:42:02;72.3;56.1;
56360;PMS7003;42611;51.132;13.588;2024-03-08T06:47:01;73.2;56.7;
56360;PMS7003;42611;51.132;13.588;2024-03-08T06:52:01;73.1;57.0;
56360;PMS7003;42611;51.132;13.588;2024-03-08T06:57:03;72.0;56.3;
56360;PMS7003;42611;51.132;13.588;2024-03-08T07:02:03;71.6;56.1;
56360;PMS7003;42611;51.132;13.588;2024-03-08T07:07:01;70.8;55.1;
56360;PMS7003;42611;51.132;13.588;2024-03-08T07:12:02;69.3;54.6;
56360;PMS7003;42611;51.132;13.588;2024-03-08T07:17:08;70.4;55.0;
56360;PMS7003;42611;51.132;13.588;2024-03-08T07:22:01;71.9;56.1;
56360;PMS7003;42611;51.132;13.588;2024-03-08T07:27:01;72.3;56.5;
56360;PMS7003;42611;51.132;13.588;2024-03-08T07:32:02;73.6;57.3;
56360;PMS7003;42611;51.132;13.588;2024-03-08T07:37:02;75.0;57.9;
56360;PMS7003;42611;51.132;13.588;2024-03-08T07:42:02;73.9;56.9;
56360;PMS7003;42611;51.132;13.588;2024-03-08T07:47:02;73.4;56.2;
56360;PMS7003;42611;51.132;13.588;2024-03-08T07:52:02;72.6;55.1;
56360;PMS7003;42611;51.132;13.588;2024-03-08T07:57:02;69.0;53.0;
56360;PMS7003;42611;51.132;13.588;2024-03-08T08:02:02;67.8;51.9;
56360;PMS7003;42611;51.132;13.588;2024-03-08T08:07:02;67.3;51.4;
56360;PMS7003;42611;51.132;13.588;2024-03-08T08:12:01;65.0;50.4;
56360;PMS7003;42611;51.132;13.588;2024-03-08T08:17:02;62.9;49.4;
56360;PMS7003;42611;51.132;13.588;2024-03-08T08:22:02;64.5;50.1;
56360;PMS7003;42611;51.132;13.588;2024-03-08T08:27:02;63.4;49.5;
56360;PMS7003;42611;51.132;13.588;2024-03-08T08:32:04;62.6;49.1;
56360;PMS7003;42611;51.132;13.588;2024-03-08T08:37:02;61.8;48.7;
56360;PMS7003;42611;51.132;13.588;2024-03-08T08:42:02;60.0;46.6;
56360;PMS7003;42611;51.132;13.588;2024-03-08T08:47:17;58.4;45.6;
56360;PMS7003;42611;51.132;13.588;2024-03-08T08:52:18;57.0;44.2;
56360;PMS7003;42611;51.132;13.588;2024-03-08T08:57:02;55.5;43.0;
56360;PMS7003;42611;51.132;13.588;2024-03-08T09:02:02;54.8;42.5;
56360;PMS7003;42611;51.132;13.588;2024-03-08T09:07:03;57.8;45.0;
56360;PMS7003;42611;51.132;13.588;2024-03-08T09:12:02;56.2;44.2;
56360;PMS7003;42611;51.132;13.588;2024-03-08T09:17:01;56.8;45.0;
56360;PMS7003;42611;51.132;13.588;2024-03-08T09:27:01;56.4;44.3;
56360;PMS7003;42611;51.132;13.588;2024-03-08T09:32:01;55.0;43.3;
56360;PMS7003;42611;51.132;13.588;2024-03-08T09:37:01;56.8;44.2;
56360;PMS7003;42611;51.132;13.588;2024-03-08T09:42:02;56.3;44.0;
56360;PMS7003;42611;51.132;13.588;2024-03-08T09:47:01;55.3;43.8;
56360;PMS7003;42611;51.132;13.588;2024-03-08T09:52:02;54.6;43.9;
56360;PMS7003;42611;51.132;13.588;2024-03-08T09:57:04;53.2;43.4;
56360;PMS7003;42611;51.132;13.588;2024-03-08T10:02:02;51.0;42.6;
56360;PMS7003;42611;51.132;13.588;2024-03-08T10:07:01;50.0;41.8;
56360;PMS7003;42611;51.132;13.588;2024-03-08T10:13:01;49.4;40.5;
56360;PMS7003;42611;51.132;13.588;2024-03-08T10:18:01;49.0;39.3;
56360;PMS7003;42611;51.132;13.588;2024-03-08T10:23:12;48.2;38.6;
56360;PMS7003;42611;51.132;13.588;2024-03-08T10:28:03;48.7;38.2;
56360;PMS7003;42611;51.132;13.588;2024-03-08T10:33:01;48.2;37.7;
56360;PMS7003;42611;51.132;13.588;2024-03-08T10:38:05;46.8;37.2;
56360;PMS7003;42611;51.132;13.588;2024-03-08T10:43:01;46.0;37.3;
56360;PMS7003;42611;51.132;13.588;2024-03-08T10:48:14;45.3;37.0;
56360;PMS7003;42611;51.132;13.588;2024-03-08T10:53:02;42.6;35.6;
56360;PMS7003;42611;51.132;13.588;2024-03-08T10:58:02;42.8;35.1;
56360;PMS7003;42611;51.132;13.588;2024-03-08T11:03:01;43.1;35.0;
56360;PMS7003;42611;51.132;13.588;2024-03-08T11:08:02;42.5;34.4;
56360;PMS7003;42611;51.132;13.588;2024-03-08T11:13:01;41.1;33.4;
56360;PMS7003;42611;51.132;13.588;2024-03-08T11:18:01;41.7;33.7;
56360;PMS7003;42611;51.132;13.588;2024-03-08T11:23:03;39.3;33.2;
56360;PMS7003;42611;51.132;13.588;2024-03-08T11:28:18;39.4;33.6;
56360;PMS7003;42611;51.132;13.588;2024-03-08T11:33:01;39.9;34.5;
56360;PMS7003;42611;51.132;13.588;2024-03-08T11:38:03;41.7;35.1;
56360;PMS7003;42611;51.132;13.588;2024-03-08T11:43:01;42.2;35.4;
56360;PMS7003;42611;51.132;13.588;2024-03-08T11:48:02;43.7;35.8;
56360;PMS7003;42611;51.132;13.588;2024-03-08T11:53:02;43.3;35.4;
56360;PMS7003;42611;51.132;13.588;2024-03-08T11:58:03;41.5;34.4;
56360;PMS7003;42611;51.132;13.588;2024-03-08T12:03:02;39.9;33.9;
56360;PMS7003;42611;51.132;13.588;2024-03-08T12:08:01;39.7;33.7;
56360;PMS7003;42611;51.132;13.588;2024-03-08T12:13:01;38.1;32.8;
56360;PMS7003;42611;51.132;13.588;2024-03-08T12:18:02;36.6;32.1;
56360;PMS7003;42611;51.132;13.588;2024-03-08T12:24:09;37.2;32.4;
56360;PMS7003;42611;51.132;13.588;2024-03-08T12:29:18;37.0;32.5;
56360;PMS7003;42611;51.132;13.588;2024-03-08T12:34:01;36.5;32.5;
56360;PMS7003;42611;51.132;13.588;2024-03-08T12:39:01;36.1;32.4;
56360;PMS7003;42611;51.132;13.588;2024-03-08T12:44:01;35.3;31.6;
56360;PMS7003;42611;51.132;13.588;2024-03-08T12:49:01;33.8;30.5;
56360;PMS7003;42611;51.132;13.588;2024-03-08T12:54:08;34.1;30.4;
56360;PMS7003;42611;51.132;13.588;2024-03-08T12:59:01;37.0;32.2;
56360;PMS7003;42611;51.132;13.588;2024-03-08T13:04:01;40.1;33.9;
56360;PMS7003;42611;51.132;13.588;2024-03-08T13:09:01;42.9;35.7;
56360;PMS7003;42611;51.132;13.588;2024-03-08T13:14:02;46.3;38.2;
56360;PMS7003;42611;51.132;13.588;2024-03-08T13:19:02;48.2;39.6;
56360;PMS7003;42611;51.132;13.588;2024-03-08T13:29:02;49.0;40.3;
56360;PMS7003;42611;51.132;13.588;2024-03-08T13:34:01;51.8;42.2;
56360;PMS7003;42611;51.132;13.588;2024-03-08T13:39:01;53.6;43.2;
56360;PMS7003;42611;51.132;13.588;2024-03-08T13:44:01;55.7;44.2;
56360;PMS7003;42611;51.132;13.588;2024-03-08T13:49:04;55.8;44.1;
56360;PMS7003;42611;51.132;13.588;2024-03-08T13:54:02;51.2;41.4;
56360;PMS7003;42611;51.132;13.588;2024-03-08T13:59:01;44.9;37.1;
56360;PMS7003;42611;51.132;13.588;2024-03-08T14:04:01;38.9;33.4;
56360;PMS7003;42611;51.132;13.588;2024-03-08T14:10:01;33.2;29.3;
56360;PMS7003;42611;51.132;13.588;2024-03-08T14:15:02;27.2;24.2;
56360;PMS7003;42611;51.132;13.588;2024-03-08T14:20:01;27.7;24.2;
56360;PMS7003;42611;51.132;13.588;2024-03-08T14:25:08;30.5;26.2;
56360;PMS7003;42611;51.132;13.588;2024-03-08T14:30:02;35.4;29.4;
56360;PMS7003;42611;51.132;13.588;2024-03-08T14:35:01;41.4;33.6;
56360;PMS7003;42611;51.132;13.588;2024-03-08T14:40:01;47.6;38.8;
56360;PMS7003;42611;51.132;13.588;2024-03-08T14:45:02;51.7;41.6;
56360;PMS7003;42611;51.132;13.588;2024-03-08T14:50:01;54.4;43.6;
56360;PMS7003;42611;51.132;13.588;2024-03-08T14:55:01;54.6;43.4;
56360;PMS7003;42611;51.132;13.588;2024-03-08T15:00:02;54.0;43.2;
56360;PMS7003;42611;51.132;13.588;2024-03-08T15:05:02;53.2;42.8;
56360;PMS7003;42611;51.132;13.588;2024-03-08T15:10:01;52.8;43.0;
56360;PMS7003;42611;51.132;13.588;2024-03-08T15:15:02;49.3;40.8;
56360;PMS7003;42611;51.132;13.588;2024-03-08T15:20:02;48.5;40.0;
56360;PMS7003;42611;51.132;13.588;2024-03-08T15:25:02;45.6;37.8;
56360;PMS7003;42611;51.132;13.588;2024-03-08T15:30:02;43.7;36.2;
56360;PMS7003;42611;51.132;13.588;2024-03-08T15:35:01;39.1;32.6;
56360;PMS7003;42611;51.132;13.588;2024-03-08T15:40:01;35.2;29.4;
56360;PMS7003;42611;51.132;13.588;2024-03-08T15:45:02;30.2;26.3;
56360;PMS7003;42611;51.132;13.588;2024-03-08T15:50:02;27.0;24.4;
56360;PMS7003;42611;51.132;13.588;2024-03-08T15:55:01;22.8;21.7;
56360;PMS7003;42611;51.132;13.588;2024-03-08T16:00:03;21.2;20.1;
56360;PMS7003;42611;51.132;13.588;2024-03-08T16:05:01;20.5;19.6;
56360;PMS7003;42611;51.132;13.588;2024-03-08T16:10:01;20.8;19.4;
56360;PMS7003;42611;51.132;13.588;2024-03-08T16:15:02;20.1;18.6;
56360;PMS7003;42611;51.132;13.588;2024-03-08T16:20:01;21.2;19.0;
56360;PMS7003;42611;51.132;13.588;2024-03-08T16:25:01;23.3;21.0;
56360;PMS7003;42611;51.132;13.588;2024-03-08T16:30:02;32.3;27.4;
56360;PMS7003;42611;51.132;13.588;2024-03-08T16:35:03;39.4;32.6;
56360;PMS7003;42611;51.132;13.588;2024-03-08T16:40:01;47.4;38.5;
56360;PMS7003;42611;51.132;13.588;2024-03-08T16:45:02;53.4;43.0;
56360;PMS7003;42611;51.132;13.588;2024-03-08T16:50:01;59.2;47.0;
56360;PMS7003;42611;51.132;13.588;2024-03-08T16:55:08;58.6;46.7;
56360;PMS7003;42611;51.132;13.588;2024-03-08T17:00:03;58.5;46.2;
56360;PMS7003;42611;51.132;13.588;2024-03-08T17:10:01;58.8;46.6;
56360;PMS7003;42611;51.132;13.588;2024-03-08T17:15:02;59.8;47.4;
56360;PMS7003;42611;51.132;13.588;2024-03-08T17:20:03;63.5;51.2;
56360;PMS7003;42611;51.132;13.588;2024-03-08T17:25:01;65.7;52.4;
56360;PMS7003;42611;51.132;13.588;2024-03-08T17:30:03;67.0;53.1;
56360;PMS7003;42611;51.132;13.588;2024-03-08T17:35:01;69.0;54.4;
56360;PMS7003;42611;51.132;13.588;2024-03-08T17:40:02;70.2;55.6;
56360;PMS7003;42611;51.132;13.588;2024-03-08T17:45:02;69.2;53.8;
56360;PMS7003;42611;51.132;13.588;2024-03-08T17:50:03;69.7;55.1;
56360;PMS7003;42611;51.132;13.588;2024-03-08T17:55:01;70.4;56.4;
56360;PMS7003;42611;51.132;13.588;2024-03-08T18:00:02;72.2;57.4;
56360;PMS7003;42611;51.132;13.588;2024-03-08T18:05:01;71.9;56.7;
56360;PMS7003;42611;51.132;13.588;2024-03-08T18:10:02;72.3;57.8;
56360;PMS7003;42611;51.132;13.588;2024-03-08T18:15:02;70.6;56.2;
56360;PMS7003;42611;51.132;13.588;2024-03-08T18:20:02;70.5;54.7;
56360;PMS7003;42611;51.132;13.588;2024-03-08T18:25:02;69.0;54.2;
56360;PMS7003;42611;51.132;13.588;2024-03-08T18:30:02;69.4;54.6;
56360;PMS7003;42611;51.132;13.588;2024-03-08T18:40:01;70.8;54.3;
56360;PMS7003;42611;51.132;13.588;2024-03-08T18:45:02;70.4;54.6;
56360;PMS7003;42611;51.132;13.588;2024-03-08T18:50:02;71.2;55.5;
56360;PMS7003;42611;51.132;13.588;2024-03-08T18:55:01;71.4;55.8;
56360;PMS7003;42611;51.132;13.588;2024-03-08T19:00:02;71.8;56.2;
56360;PMS7003;42611;51.132;13.588;2024-03-08T19:05:01;72.4;56.8;
56360;PMS7003;42611;51.132;13.588;2024-03-08T19:10:02;74.4;57.9;
56360;PMS7003;42611;51.132;13.588;2024-03-08T19:15:02;75.0;57.7;
56360;PMS7003;42611;51.132;13.588;2024-03-08T19:20:03;75.7;58.2;
56360;PMS7003;42611;51.132;13.588;2024-03-08T19:25:01;76.1;59.4;
56360;PMS7003;42611;51.132;13.588;2024-03-08T19:30:03;76.6;60.7;
56360;PMS7003;42611;51.132;13.588;2024-03-08T19:35:01;77.2;61.3;
56360;PMS7003;42611;51.132;13.588;2024-03-08T19:40:01;77.0;62.2;
56360;PMS7003;42611;51.132;13.588;2024-03-08T19:45:02;77.3;62.8;
56360;PMS7003;42611;51.132;13.588;2024-03-08T19:50:01;76.9;62.4;
56360;PMS7003;42611;51.132;13.588;2024-03-08T19:55:01;76.8;61.1;
56360;PMS7003;42611;51.132;13.588;2024-03-08T20:00:03;73.4;59.0;
56360;PMS7003;42611;51.132;13.588;2024-03-08T20:05:01;70.6;56.4;
56360;PMS7003;42611;51.132;13.588;2024-03-08T20:10:03;65.7;52.1;
56360;PMS7003;42611;51.132;13.588;2024-03-08T20:15:02;62.0;48.8;
56360;PMS7003;42611;51.132;13.588;2024-03-08T20:20:03;58.1;46.4;
56360;PMS7003;42611;51.132;13.588;2024-03-08T20:25:01;55.9;44.7;
56360;PMS7003;42611;51.132;13.588;2024-03-08T20:30:02;54.8;43.5;
56360;PMS7003;42611;51.132;13.588;2024-03-08T20:35:01;54.2;43.4;
56360;PMS7003;42611;51.132;13.588;2024-03-08T20:40:01;50.7;41.2;
56360;PMS7003;42611;51.132;13.588;2024-03-08T20:45:04;47.6;38.8;
56360;PMS7003;42611;51.132;13.588;2024-03-08T20:50:02;45.7;37.1;
56360;PMS7003;42611;51.132;13.588;2024-03-08T20:55:01;40.7;33.8;
56360;PMS7003;42611;51.132;13.588;2024-03-08T21:00:07;37.7;31.2;
56360;PMS7003;42611;51.132;13.588;2024-03-08T21:05:01;37.4;31.0;
56360;PMS7003;42611;51.132;13.588;2024-03-08T21:10:01;35.9;30.5;
56360;PMS7003;42611;51.132;13.588;2024-03-08T21:15:02;34.2;29.3;
56360;PMS7003;42611;51.132;13.588;2024-03-08T21:20:02;35.1;30.2;
56360;PMS7003;42611;51.132;13.588;2024-03-08T21:25:01;34.5;30.2;
56360;PMS7003;42611;51.132;13.588;2024-03-08T21:30:02;34.5;29.8;
56360;PMS7003;42611;51.132;13.588;2024-03-08T21:35:01;35.0;30.0;
56360;PMS7003;42611;51.132;13.588;2024-03-08T21:40:02;35.3;30.3;
56360;PMS7003;42611;51.132;13.588;2024-03-08T21:45:03;35.6;30.4;
56360;PMS7003;42611;51.132;13.588;2024-03-08T21:50:02;36.7;31.1;
56360;PMS7003;42611;51.132;13.588;2024-03-08T21:55:01;36.4;31.2;
56360;PMS7003;42611;51.132;13.588;2024-03-08T22:00:03;36.4;31.4;
56360;PMS7003;42611;51.132;13.588;2024-03-08T22:05:01;36.8;31.8;
56360;PMS7003;42611;51.132;13.588;2024-03-08T22:10:02;38.6;32.4;
56360;PMS7003;42611;51.132;13.588;2024-03-08T22:15:02;37.8;32.0;
56360;PMS7003;42611;51.132;13.588;2024-03-08T22:20:02;37.6;32.0;
56360;PMS7003;42611;51.132;13.588;2024-03-08T22:25:01;37.8;31.6;
56360;PMS7003;42611;51.132;13.588;2024-03-08T22:30:02;36.8;31.2;
56360;PMS7003;42611;51.132;13.588;2024-03-08T22:35:01;35.4;31.1;
56360;PMS7003;42611;51.132;13.588;2024-03-08T22:40:03;37.3;31.6;
56360;PMS7003;42611;51.132;13.588;2024-03-08T22:45:02;39.0;32.0;
56360;PMS7003;42611;51.132;13.588;2024-03-08T22:50:02;38.2;32.4;
56360;PMS7003;42611;51.132;13.588;2024-03-08T22:55:01;38.3;32.6;
56360;PMS7003;42611;51.132;13.588;2024-03-08T23:00:02;37.8;32.5;
56360;PMS7003;42611;51.132;13.588;2024-03-08T23:05:01;36.4;32.3;
56360;PMS7003;42611;51.132;13.588;2024-03-08T23:10:01;36.3;32.7;
56360;PMS7003;42611;51.132;13.588;2024-03-08T23:15:03;37.1;32.7;
56360;PMS7003;42611;51.132;13.588;2024-03-08T23:20:01;36.4;31.9;
56360;PMS7003;42611;51.132;13.588;2024-03-08T23:25:01;35.2;31.2;
56360;PMS7003;42611;51.132;13.588;2024-03-08T23:30:02;36.9;32.3;
56360;PMS7003;42611;51.132;13.588;2024-03-08T23:35:02;36.2;32.0;
56360;PMS7003;42611;51.132;13.588;2024-03-08T23:40:06;35.6;31.9;
56360;PMS7003;42611;51.132;13.588;2024-03-08T23:45:02;36.7;33.1;
56360;PMS7003;42611;51.132;13.588;2024-03-08T23:50:02;38.1;33.8;
56360;PMS7003;42611;51.132;13.588;2024-03-08T23:55:01;36.5;33.1;
